sensor_id;sensor_type;location;lat;lon;timestamp;P1;durP1;ratioP1;P2;durP2;ratioP2
6145;SDS011;3104;50.348;7.620;2022-10-16T00:00:42;1.73;;;1.30;;
6145;SDS011;3104;50.348;7.620;2022-10-16T00:03:09;2.03;;;1.60;;
6145;SDS011;3104;50.348;7.620;2022-10-16T00:05:38;1.70;;;1.60;;
6145;SDS011;3104;50.348;7.620;2022-10-16T00:08:06;1.90;;;1.50;;
6145;SDS011;3104;50.348;7.620;2022-10-16T00:10:33;7.37;;;2.60;;
6145;SDS011;3104;50.348;7.620;2022-10-16T00:12:58;1.70;;;1.60;;
6145;SDS011;3104;50.348;7.620;2022-10-16T00:15:24;1.40;;;1.30;;
6145;SDS011;3104;50.348;7.620;2022-10-16T00:17:49;1.80;;;1.33;;
6145;SDS011;3104;50.348;7.620;2022-10-16T00:20:15;1.77;;;1.67;;
6145;SDS011;3104;50.348;7.620;2022-10-16T00:22:41;1.47;;;1.37;;
6145;SDS011;3104;50.348;7.620;2022-10-16T00:25:06;1.90;;;1.50;;
6145;SDS011;3104;50.348;7.620;2022-10-16T00:27:32;2.87;;;2.10;;
6145;SDS011;3104;50.348;7.620;2022-10-16T00:29:58;1.50;;;1.40;;
6145;SDS011;3104;50.348;7.620;2022-10-16T00:32:24;2.40;;;1.43;;
6145;SDS011;3104;50.348;7.620;2022-10-16T00:34:49;1.63;;;1.30;;
6145;SDS011;3104;50.348;7.620;2022-10-16T00:37:15;4.30;;;1.57;;
6145;SDS011;3104;50.348;7.620;2022-10-16T00:39:40;1.50;;;1.40;;
6145;SDS011;3104;50.348;7.620;2022-10-16T00:42:06;1.70;;;1.60;;
6145;SDS011;3104;50.348;7.620;2022-10-16T00:47:19;1.47;;;1.37;;
6145;SDS011;3104;50.348;7.620;2022-10-16T00:49:51;2.30;;;2.07;;
6145;SDS011;3104;50.348;7.620;2022-10-16T00:52:21;1.40;;;1.30;;
6145;SDS011;3104;50.348;7.620;2022-10-16T00:54:47;2.00;;;1.90;;
6145;SDS011;3104;50.348;7.620;2022-10-16T00:57:14;3.97;;;1.43;;
6145;SDS011;3104;50.348;7.620;2022-10-16T00:59:40;1.77;;;1.30;;
6145;SDS011;3104;50.348;7.620;2022-10-16T01:02:07;1.97;;;1.40;;
6145;SDS011;3104;50.348;7.620;2022-10-16T01:04:36;1.70;;;1.60;;
6145;SDS011;3104;50.348;7.620;2022-10-16T01:07:12;2.50;;;1.43;;
6145;SDS011;3104;50.348;7.620;2022-10-16T01:12:32;2.37;;;1.73;;
6145;SDS011;3104;50.348;7.620;2022-10-16T01:15:05;1.77;;;1.50;;
6145;SDS011;3104;50.348;7.620;2022-10-16T01:20:42;2.10;;;1.50;;
6145;SDS011;3104;50.348;7.620;2022-10-16T01:28:34;1.70;;;1.40;;
6145;SDS011;3104;50.348;7.620;2022-10-16T01:31:05;2.50;;;1.80;;
6145;SDS011;3104;50.348;7.620;2022-10-16T01:33:38;1.60;;;1.50;;
6145;SDS011;3104;50.348;7.620;2022-10-16T01:36:14;1.53;;;1.40;;
6145;SDS011;3104;50.348;7.620;2022-10-16T01:38:44;4.70;;;1.40;;
6145;SDS011;3104;50.348;7.620;2022-10-16T01:41:15;2.20;;;1.53;;
6145;SDS011;3104;50.348;7.620;2022-10-16T01:43:46;2.00;;;1.47;;
6145;SDS011;3104;50.348;7.620;2022-10-16T01:46:18;1.20;;;1.20;;
6145;SDS011;3104;50.348;7.620;2022-10-16T01:48:46;1.30;;;1.30;;
6145;SDS011;3104;50.348;7.620;2022-10-16T01:51:13;1.50;;;1.40;;
6145;SDS011;3104;50.348;7.620;2022-10-16T01:53:41;3.40;;;1.57;;
6145;SDS011;3104;50.348;7.620;2022-10-16T01:56:11;1.60;;;1.50;;
6145;SDS011;3104;50.348;7.620;2022-10-16T01:58:40;1.77;;;1.67;;
6145;SDS011;3104;50.348;7.620;2022-10-16T02:01:11;3.63;;;1.60;;
6145;SDS011;3104;50.348;7.620;2022-10-16T02:03:40;1.30;;;1.30;;
6145;SDS011;3104;50.348;7.620;2022-10-16T02:06:08;1.70;;;1.40;;
6145;SDS011;3104;50.348;7.620;2022-10-16T02:08:34;2.73;;;1.57;;
6145;SDS011;3104;50.348;7.620;2022-10-16T02:11:00;2.30;;;1.43;;
6145;SDS011;3104;50.348;7.620;2022-10-16T02:13:31;1.93;;;1.83;;
6145;SDS011;3104;50.348;7.620;2022-10-16T02:16:01;1.50;;;1.30;;
6145;SDS011;3104;50.348;7.620;2022-10-16T02:18:27;2.90;;;1.63;;
6145;SDS011;3104;50.348;7.620;2022-10-16T02:20:57;2.30;;;1.77;;
6145;SDS011;3104;50.348;7.620;2022-10-16T02:23:29;1.60;;;1.50;;
6145;SDS011;3104;50.348;7.620;2022-10-16T02:26:08;1.93;;;1.83;;
6145;SDS011;3104;50.348;7.620;2022-10-16T02:28:40;1.93;;;1.70;;
6145;SDS011;3104;50.348;7.620;2022-10-16T02:31:11;3.63;;;2.63;;
6145;SDS011;3104;50.348;7.620;2022-10-16T02:33:40;1.47;;;1.37;;
6145;SDS011;3104;50.348;7.620;2022-10-16T02:36:08;2.30;;;1.90;;
6145;SDS011;3104;50.348;7.620;2022-10-16T02:38:34;1.60;;;1.50;;
6145;SDS011;3104;50.348;7.620;2022-10-16T02:41:01;1.40;;;1.30;;
6145;SDS011;3104;50.348;7.620;2022-10-16T02:43:27;1.40;;;1.40;;
6145;SDS011;3104;50.348;7.620;2022-10-16T02:45:52;2.90;;;1.60;;
6145;SDS011;3104;50.348;7.620;2022-10-16T02:48:18;2.00;;;1.90;;
6145;SDS011;3104;50.348;7.620;2022-10-16T02:50:43;1.70;;;1.60;;
6145;SDS011;3104;50.348;7.620;2022-10-16T02:53:09;1.50;;;1.40;;
6145;SDS011;3104;50.348;7.620;2022-10-16T02:55:34;2.00;;;1.90;;
6145;SDS011;3104;50.348;7.620;2022-10-16T02:58:00;3.73;;;3.43;;
6145;SDS011;3104;50.348;7.620;2022-10-16T03:00:26;1.50;;;1.40;;
6145;SDS011;3104;50.348;7.620;2022-10-16T03:02:51;3.20;;;1.80;;
6145;SDS011;3104;50.348;7.620;2022-10-16T03:05:17;1.23;;;1.13;;
6145;SDS011;3104;50.348;7.620;2022-10-16T03:07:42;2.33;;;1.37;;
6145;SDS011;3104;50.348;7.620;2022-10-16T03:10:08;1.60;;;1.47;;
6145;SDS011;3104;50.348;7.620;2022-10-16T03:12:34;1.67;;;1.57;;
6145;SDS011;3104;50.348;7.620;2022-10-16T03:14:59;1.20;;;1.20;;
6145;SDS011;3104;50.348;7.620;2022-10-16T03:17:25;1.27;;;1.20;;
6145;SDS011;3104;50.348;7.620;2022-10-16T03:19:51;3.30;;;1.53;;
6145;SDS011;3104;50.348;7.620;2022-10-16T03:22:16;1.23;;;1.13;;
6145;SDS011;3104;50.348;7.620;2022-10-16T03:24:42;2.40;;;1.43;;
6145;SDS011;3104;50.348;7.620;2022-10-16T03:27:08;2.60;;;1.50;;
6145;SDS011;3104;50.348;7.620;2022-10-16T03:29:34;3.07;;;1.43;;
6145;SDS011;3104;50.348;7.620;2022-10-16T03:31:59;2.83;;;1.60;;
6145;SDS011;3104;50.348;7.620;2022-10-16T03:34:25;1.43;;;1.13;;
6145;SDS011;3104;50.348;7.620;2022-10-16T03:36:51;2.80;;;1.30;;
6145;SDS011;3104;50.348;7.620;2022-10-16T03:39:17;1.20;;;1.20;;
6145;SDS011;3104;50.348;7.620;2022-10-16T03:41:43;0.90;;;0.90;;
6145;SDS011;3104;50.348;7.620;2022-10-16T03:44:09;1.10;;;1.10;;
6145;SDS011;3104;50.348;7.620;2022-10-16T03:46:34;3.37;;;1.20;;
6145;SDS011;3104;50.348;7.620;2022-10-16T03:49:00;1.23;;;1.13;;
6145;SDS011;3104;50.348;7.620;2022-10-16T03:51:25;1.50;;;1.10;;
6145;SDS011;3104;50.348;7.620;2022-10-16T03:53:51;2.60;;;1.10;;
6145;SDS011;3104;50.348;7.620;2022-10-16T03:56:16;1.30;;;1.20;;
6145;SDS011;3104;50.348;7.620;2022-10-16T03:58:42;1.30;;;1.20;;
6145;SDS011;3104;50.348;7.620;2022-10-16T04:01:08;1.67;;;1.00;;
6145;SDS011;3104;50.348;7.620;2022-10-16T04:03:33;1.63;;;1.00;;
6145;SDS011;3104;50.348;7.620;2022-10-16T04:05:59;1.27;;;1.17;;
6145;SDS011;3104;50.348;7.620;2022-10-16T04:08:25;1.47;;;0.90;;
6145;SDS011;3104;50.348;7.620;2022-10-16T04:10:50;4.50;;;1.20;;
6145;SDS011;3104;50.348;7.620;2022-10-16T04:13:16;1.27;;;1.17;;
6145;SDS011;3104;50.348;7.620;2022-10-16T04:15:42;1.00;;;1.00;;
6145;SDS011;3104;50.348;7.620;2022-10-16T04:18:09;2.03;;;1.73;;
6145;SDS011;3104;50.348;7.620;2022-10-16T04:20:35;1.90;;;1.00;;
6145;SDS011;3104;50.348;7.620;2022-10-16T04:23:00;1.33;;;1.10;;
6145;SDS011;3104;50.348;7.620;2022-10-16T04:25:26;3.17;;;1.20;;
6145;SDS011;3104;50.348;7.620;2022-10-16T04:27:54;0.90;;;0.90;;
6145;SDS011;3104;50.348;7.620;2022-10-16T04:30:20;11.47;;;1.40;;
6145;SDS011;3104;50.348;7.620;2022-10-16T04:32:48;0.80;;;0.80;;
6145;SDS011;3104;50.348;7.620;2022-10-16T04:35:14;1.53;;;1.20;;
6145;SDS011;3104;50.348;7.620;2022-10-16T04:37:40;0.70;;;0.70;;
6145;SDS011;3104;50.348;7.620;2022-10-16T04:40:06;1.63;;;1.07;;
6145;SDS011;3104;50.348;7.620;2022-10-16T04:42:32;1.13;;;0.83;;
6145;SDS011;3104;50.348;7.620;2022-10-16T04:44:58;2.00;;;0.90;;
6145;SDS011;3104;50.348;7.620;2022-10-16T04:47:23;2.17;;;1.50;;
6145;SDS011;3104;50.348;7.620;2022-10-16T04:49:49;2.30;;;1.00;;
6145;SDS011;3104;50.348;7.620;2022-10-16T04:52:14;0.90;;;0.90;;
6145;SDS011;3104;50.348;7.620;2022-10-16T04:54:40;1.00;;;1.00;;
6145;SDS011;3104;50.348;7.620;2022-10-16T04:57:06;1.43;;;1.40;;
6145;SDS011;3104;50.348;7.620;2022-10-16T04:59:31;0.93;;;0.93;;
6145;SDS011;3104;50.348;7.620;2022-10-16T05:01:57;1.13;;;0.93;;
6145;SDS011;3104;50.348;7.620;2022-10-16T05:04:22;2.97;;;1.20;;
6145;SDS011;3104;50.348;7.620;2022-10-16T05:06:48;0.90;;;0.90;;
6145;SDS011;3104;50.348;7.620;2022-10-16T05:09:14;1.20;;;1.20;;
6145;SDS011;3104;50.348;7.620;2022-10-16T05:11:39;1.30;;;0.87;;
6145;SDS011;3104;50.348;7.620;2022-10-16T05:14:05;1.83;;;0.90;;
6145;SDS011;3104;50.348;7.620;2022-10-16T05:16:31;0.67;;;0.67;;
6145;SDS011;3104;50.348;7.620;2022-10-16T05:18:56;1.40;;;0.90;;
6145;SDS011;3104;50.348;7.620;2022-10-16T05:21:22;2.17;;;0.93;;
6145;SDS011;3104;50.348;7.620;2022-10-16T05:23:47;1.57;;;1.10;;
6145;SDS011;3104;50.348;7.620;2022-10-16T05:26:13;1.13;;;1.00;;
6145;SDS011;3104;50.348;7.620;2022-10-16T05:28:39;1.07;;;0.90;;
6145;SDS011;3104;50.348;7.620;2022-10-16T05:31:08;3.10;;;1.10;;
6145;SDS011;3104;50.348;7.620;2022-10-16T05:33:34;1.00;;;0.80;;
6145;SDS011;3104;50.348;7.620;2022-10-16T05:36:07;1.13;;;1.00;;
6145;SDS011;3104;50.348;7.620;2022-10-16T05:38:34;2.40;;;0.90;;
6145;SDS011;3104;50.348;7.620;2022-10-16T05:41:00;0.70;;;0.70;;
6145;SDS011;3104;50.348;7.620;2022-10-16T05:43:27;1.50;;;1.40;;
6145;SDS011;3104;50.348;7.620;2022-10-16T05:46:00;1.90;;;1.07;;
6145;SDS011;3104;50.348;7.620;2022-10-16T05:48:27;0.80;;;0.80;;
6145;SDS011;3104;50.348;7.620;2022-10-16T05:50:56;0.80;;;0.80;;
6145;SDS011;3104;50.348;7.620;2022-10-16T05:53:27;0.90;;;0.90;;
6145;SDS011;3104;50.348;7.620;2022-10-16T05:55:54;0.97;;;0.97;;
6145;SDS011;3104;50.348;7.620;2022-10-16T05:58:20;1.50;;;0.73;;
6145;SDS011;3104;50.348;7.620;2022-10-16T06:00:57;1.10;;;1.10;;
6145;SDS011;3104;50.348;7.620;2022-10-16T06:03:24;0.77;;;0.77;;
6145;SDS011;3104;50.348;7.620;2022-10-16T06:05:50;1.83;;;1.10;;
6145;SDS011;3104;50.348;7.620;2022-10-16T06:08:17;0.97;;;0.97;;
6145;SDS011;3104;50.348;7.620;2022-10-16T06:10:43;1.50;;;0.90;;
6145;SDS011;3104;50.348;7.620;2022-10-16T06:13:10;1.00;;;0.90;;
6145;SDS011;3104;50.348;7.620;2022-10-16T06:15:37;2.40;;;1.03;;
6145;SDS011;3104;50.348;7.620;2022-10-16T06:18:04;3.60;;;1.00;;
6145;SDS011;3104;50.348;7.620;2022-10-16T06:20:30;2.00;;;0.97;;
6145;SDS011;3104;50.348;7.620;2022-10-16T06:22:55;1.10;;;1.10;;
6145;SDS011;3104;50.348;7.620;2022-10-16T06:25:22;3.40;;;2.80;;
6145;SDS011;3104;50.348;7.620;2022-10-16T06:27:47;2.97;;;2.57;;
6145;SDS011;3104;50.348;7.620;2022-10-16T06:30:13;1.53;;;1.17;;
6145;SDS011;3104;50.348;7.620;2022-10-16T06:32:38;1.50;;;1.40;;
6145;SDS011;3104;50.348;7.620;2022-10-16T06:35:04;1.67;;;1.00;;
6145;SDS011;3104;50.348;7.620;2022-10-16T06:37:30;2.27;;;1.47;;
6145;SDS011;3104;50.348;7.620;2022-10-16T06:39:55;2.67;;;1.80;;
6145;SDS011;3104;50.348;7.620;2022-10-16T06:42:21;1.40;;;1.10;;
6145;SDS011;3104;50.348;7.620;2022-10-16T06:44:46;2.23;;;2.13;;
6145;SDS011;3104;50.348;7.620;2022-10-16T06:47:12;3.57;;;1.80;;
6145;SDS011;3104;50.348;7.620;2022-10-16T06:49:37;1.20;;;0.90;;
6145;SDS011;3104;50.348;7.620;2022-10-16T06:52:03;0.70;;;0.70;;
6145;SDS011;3104;50.348;7.620;2022-10-16T06:54:29;0.80;;;0.80;;
6145;SDS011;3104;50.348;7.620;2022-10-16T06:56:55;3.60;;;1.10;;
6145;SDS011;3104;50.348;7.620;2022-10-16T06:59:21;1.17;;;1.00;;
6145;SDS011;3104;50.348;7.620;2022-10-16T07:01:47;1.10;;;1.00;;
6145;SDS011;3104;50.348;7.620;2022-10-16T07:04:13;1.30;;;1.20;;
6145;SDS011;3104;50.348;7.620;2022-10-16T07:06:39;1.23;;;1.13;;
6145;SDS011;3104;50.348;7.620;2022-10-16T07:09:06;2.90;;;1.37;;
6145;SDS011;3104;50.348;7.620;2022-10-16T07:11:33;1.23;;;1.23;;
6145;SDS011;3104;50.348;7.620;2022-10-16T07:14:01;2.70;;;1.10;;
6145;SDS011;3104;50.348;7.620;2022-10-16T07:16:28;2.73;;;2.00;;
6145;SDS011;3104;50.348;7.620;2022-10-16T07:18:56;1.27;;;1.17;;
6145;SDS011;3104;50.348;7.620;2022-10-16T07:21:27;2.83;;;1.20;;
6145;SDS011;3104;50.348;7.620;2022-10-16T07:23:55;1.00;;;1.00;;
6145;SDS011;3104;50.348;7.620;2022-10-16T07:26:22;1.23;;;1.00;;
6145;SDS011;3104;50.348;7.620;2022-10-16T07:28:49;1.30;;;1.10;;
6145;SDS011;3104;50.348;7.620;2022-10-16T07:31:15;1.27;;;1.17;;
6145;SDS011;3104;50.348;7.620;2022-10-16T07:33:43;1.27;;;1.23;;
6145;SDS011;3104;50.348;7.620;2022-10-16T07:36:10;0.93;;;0.93;;
6145;SDS011;3104;50.348;7.620;2022-10-16T07:38:36;1.40;;;1.20;;
6145;SDS011;3104;50.348;7.620;2022-10-16T07:41:03;1.30;;;0.93;;
6145;SDS011;3104;50.348;7.620;2022-10-16T07:43:30;0.83;;;0.83;;
6145;SDS011;3104;50.348;7.620;2022-10-16T07:45:57;2.30;;;0.70;;
6145;SDS011;3104;50.348;7.620;2022-10-16T07:48:23;1.33;;;0.80;;
6145;SDS011;3104;50.348;7.620;2022-10-16T07:50:51;1.20;;;1.00;;
6145;SDS011;3104;50.348;7.620;2022-10-16T07:53:17;1.07;;;1.07;;
6145;SDS011;3104;50.348;7.620;2022-10-16T07:55:42;0.67;;;0.67;;
6145;SDS011;3104;50.348;7.620;2022-10-16T07:58:08;0.80;;;0.80;;
6145;SDS011;3104;50.348;7.620;2022-10-16T08:00:35;0.90;;;0.90;;
6145;SDS011;3104;50.348;7.620;2022-10-16T08:03:01;0.93;;;0.93;;
6145;SDS011;3104;50.348;7.620;2022-10-16T08:05:28;1.07;;;0.90;;
6145;SDS011;3104;50.348;7.620;2022-10-16T08:07:54;1.07;;;0.80;;
6145;SDS011;3104;50.348;7.620;2022-10-16T08:10:21;1.00;;;1.00;;
6145;SDS011;3104;50.348;7.620;2022-10-16T08:12:49;1.47;;;0.93;;
6145;SDS011;3104;50.348;7.620;2022-10-16T08:15:15;2.40;;;1.00;;
6145;SDS011;3104;50.348;7.620;2022-10-16T08:17:40;1.00;;;0.97;;
6145;SDS011;3104;50.348;7.620;2022-10-16T08:20:06;1.03;;;0.90;;
6145;SDS011;3104;50.348;7.620;2022-10-16T08:22:32;2.03;;;0.97;;
6145;SDS011;3104;50.348;7.620;2022-10-16T08:24:58;2.20;;;1.00;;
6145;SDS011;3104;50.348;7.620;2022-10-16T08:27:23;1.77;;;1.00;;
6145;SDS011;3104;50.348;7.620;2022-10-16T08:29:49;5.87;;;1.00;;
6145;SDS011;3104;50.348;7.620;2022-10-16T08:32:15;1.20;;;1.10;;
6145;SDS011;3104;50.348;7.620;2022-10-16T08:34:40;1.70;;;0.90;;
6145;SDS011;3104;50.348;7.620;2022-10-16T08:37:06;0.70;;;0.67;;
6145;SDS011;3104;50.348;7.620;2022-10-16T08:39:33;0.90;;;0.90;;
6145;SDS011;3104;50.348;7.620;2022-10-16T08:42:11;1.13;;;1.03;;
6145;SDS011;3104;50.348;7.620;2022-10-16T08:44:57;0.83;;;0.83;;
6145;SDS011;3104;50.348;7.620;2022-10-16T08:47:43;0.90;;;0.90;;
6145;SDS011;3104;50.348;7.620;2022-10-16T08:50:24;1.40;;;1.20;;
6145;SDS011;3104;50.348;7.620;2022-10-16T08:52:52;1.10;;;1.10;;
6145;SDS011;3104;50.348;7.620;2022-10-16T08:57:48;1.50;;;1.40;;
6145;SDS011;3104;50.348;7.620;2022-10-16T09:00:14;1.30;;;1.20;;
6145;SDS011;3104;50.348;7.620;2022-10-16T09:02:52;1.80;;;1.37;;
6145;SDS011;3104;50.348;7.620;2022-10-16T09:08:39;2.23;;;1.00;;
6145;SDS011;3104;50.348;7.620;2022-10-16T09:11:25;1.43;;;1.00;;
6145;SDS011;3104;50.348;7.620;2022-10-16T09:14:07;1.30;;;1.20;;
6145;SDS011;3104;50.348;7.620;2022-10-16T09:17:12;1.67;;;0.90;;
6145;SDS011;3104;50.348;7.620;2022-10-16T09:19:51;1.00;;;1.00;;
6145;SDS011;3104;50.348;7.620;2022-10-16T09:22:36;1.10;;;1.10;;
6145;SDS011;3104;50.348;7.620;2022-10-16T09:25:20;0.87;;;0.87;;
6145;SDS011;3104;50.348;7.620;2022-10-16T09:27:48;1.43;;;1.23;;
6145;SDS011;3104;50.348;7.620;2022-10-16T09:30:18;2.13;;;0.80;;
6145;SDS011;3104;50.348;7.620;2022-10-16T09:32:47;2.20;;;1.23;;
6145;SDS011;3104;50.348;7.620;2022-10-16T09:35:24;3.70;;;1.23;;
6145;SDS011;3104;50.348;7.620;2022-10-16T09:37:56;0.77;;;0.77;;
6145;SDS011;3104;50.348;7.620;2022-10-16T09:40:32;0.83;;;0.80;;
6145;SDS011;3104;50.348;7.620;2022-10-16T09:48:20;1.17;;;1.10;;
6145;SDS011;3104;50.348;7.620;2022-10-16T09:50:55;0.90;;;0.90;;
6145;SDS011;3104;50.348;7.620;2022-10-16T09:53:22;1.77;;;1.20;;
6145;SDS011;3104;50.348;7.620;2022-10-16T09:55:48;1.90;;;0.80;;
6145;SDS011;3104;50.348;7.620;2022-10-16T09:58:15;0.97;;;0.97;;
6145;SDS011;3104;50.348;7.620;2022-10-16T10:00:41;3.07;;;0.97;;
6145;SDS011;3104;50.348;7.620;2022-10-16T10:03:19;2.30;;;0.90;;
6145;SDS011;3104;50.348;7.620;2022-10-16T10:06:05;2.10;;;0.90;;
6145;SDS011;3104;50.348;7.620;2022-10-16T10:09:15;0.97;;;0.97;;
6145;SDS011;3104;50.348;7.620;2022-10-16T10:16:48;2.83;;;1.00;;
6145;SDS011;3104;50.348;7.620;2022-10-16T10:19:16;0.73;;;0.73;;
6145;SDS011;3104;50.348;7.620;2022-10-16T10:21:43;1.43;;;0.80;;
6145;SDS011;3104;50.348;7.620;2022-10-16T10:24:12;0.80;;;0.80;;
6145;SDS011;3104;50.348;7.620;2022-10-16T10:26:41;1.30;;;1.20;;
6145;SDS011;3104;50.348;7.620;2022-10-16T10:29:31;1.10;;;1.10;;
6145;SDS011;3104;50.348;7.620;2022-10-16T10:32:13;0.90;;;0.90;;
6145;SDS011;3104;50.348;7.620;2022-10-16T10:34:51;2.80;;;1.00;;
6145;SDS011;3104;50.348;7.620;2022-10-16T10:37:27;0.73;;;0.73;;
6145;SDS011;3104;50.348;7.620;2022-10-16T10:42:54;0.90;;;0.90;;
6145;SDS011;3104;50.348;7.620;2022-10-16T10:45:47;2.37;;;1.00;;
6145;SDS011;3104;50.348;7.620;2022-10-16T10:53:18;2.57;;;1.03;;
6145;SDS011;3104;50.348;7.620;2022-10-16T10:56:14;1.13;;;0.90;;
6145;SDS011;3104;50.348;7.620;2022-10-16T11:07:44;1.47;;;0.70;;
6145;SDS011;3104;50.348;7.620;2022-10-16T11:10:17;1.03;;;1.03;;
6145;SDS011;3104;50.348;7.620;2022-10-16T11:15:41;1.30;;;0.80;;
6145;SDS011;3104;50.348;7.620;2022-10-16T11:18:22;1.70;;;0.97;;
6145;SDS011;3104;50.348;7.620;2022-10-16T11:20:56;1.13;;;1.03;;
6145;SDS011;3104;50.348;7.620;2022-10-16T11:23:28;1.00;;;1.00;;
6145;SDS011;3104;50.348;7.620;2022-10-16T11:26:26;0.80;;;0.80;;
6145;SDS011;3104;50.348;7.620;2022-10-16T11:28:54;5.33;;;1.00;;
6145;SDS011;3104;50.348;7.620;2022-10-16T11:31:40;1.53;;;1.00;;
6145;SDS011;3104;50.348;7.620;2022-10-16T11:34:55;1.80;;;1.00;;
6145;SDS011;3104;50.348;7.620;2022-10-16T11:39:59;1.40;;;1.30;;
6145;SDS011;3104;50.348;7.620;2022-10-16T11:42:41;1.60;;;1.20;;
6145;SDS011;3104;50.348;7.620;2022-10-16T11:47:43;2.27;;;1.10;;
6145;SDS011;3104;50.348;7.620;2022-10-16T11:52:40;1.30;;;1.10;;
6145;SDS011;3104;50.348;7.620;2022-10-16T11:55:23;2.90;;;1.20;;
6145;SDS011;3104;50.348;7.620;2022-10-16T11:58:12;0.70;;;0.70;;
6145;SDS011;3104;50.348;7.620;2022-10-16T12:03:27;0.80;;;0.80;;
6145;SDS011;3104;50.348;7.620;2022-10-16T12:08:30;1.53;;;0.90;;
6145;SDS011;3104;50.348;7.620;2022-10-16T12:11:06;1.53;;;1.43;;
6145;SDS011;3104;50.348;7.620;2022-10-16T12:13:37;1.97;;;0.90;;
6145;SDS011;3104;50.348;7.620;2022-10-16T12:18:37;1.40;;;1.10;;
6145;SDS011;3104;50.348;7.620;2022-10-16T12:21:08;0.80;;;0.80;;
6145;SDS011;3104;50.348;7.620;2022-10-16T12:23:38;1.03;;;0.70;;
6145;SDS011;3104;50.348;7.620;2022-10-16T12:26:13;0.80;;;0.77;;
6145;SDS011;3104;50.348;7.620;2022-10-16T12:28:39;0.80;;;0.80;;
6145;SDS011;3104;50.348;7.620;2022-10-16T12:31:06;0.83;;;0.83;;
6145;SDS011;3104;50.348;7.620;2022-10-16T12:33:35;3.30;;;1.10;;
6145;SDS011;3104;50.348;7.620;2022-10-16T12:36:07;1.50;;;0.73;;
6145;SDS011;3104;50.348;7.620;2022-10-16T12:38:46;0.70;;;0.70;;
6145;SDS011;3104;50.348;7.620;2022-10-16T12:41:12;0.90;;;0.90;;
6145;SDS011;3104;50.348;7.620;2022-10-16T12:43:40;3.27;;;0.90;;
6145;SDS011;3104;50.348;7.620;2022-10-16T12:48:33;0.93;;;0.93;;
6145;SDS011;3104;50.348;7.620;2022-10-16T12:51:09;0.73;;;0.73;;
6145;SDS011;3104;50.348;7.620;2022-10-16T12:53:36;0.80;;;0.80;;
6145;SDS011;3104;50.348;7.620;2022-10-16T12:58:54;1.67;;;0.90;;
6145;SDS011;3104;50.348;7.620;2022-10-16T13:01:35;1.30;;;0.70;;
6145;SDS011;3104;50.348;7.620;2022-10-16T13:06:55;1.63;;;0.83;;
6145;SDS011;3104;50.348;7.620;2022-10-16T13:20:21;1.20;;;0.90;;
6145;SDS011;3104;50.348;7.620;2022-10-16T13:26:01;0.80;;;0.80;;
6145;SDS011;3104;50.348;7.620;2022-10-16T13:28:41;1.03;;;0.90;;
6145;SDS011;3104;50.348;7.620;2022-10-16T13:31:13;1.23;;;1.00;;
6145;SDS011;3104;50.348;7.620;2022-10-16T13:33:45;0.63;;;0.60;;
6145;SDS011;3104;50.348;7.620;2022-10-16T13:36:20;1.07;;;0.97;;
6145;SDS011;3104;50.348;7.620;2022-10-16T13:38:48;0.77;;;0.77;;
6145;SDS011;3104;50.348;7.620;2022-10-16T13:41:24;0.83;;;0.83;;
6145;SDS011;3104;50.348;7.620;2022-10-16T13:43:50;1.37;;;0.70;;
6145;SDS011;3104;50.348;7.620;2022-10-16T13:46:21;0.70;;;0.70;;
6145;SDS011;3104;50.348;7.620;2022-10-16T13:49:02;0.87;;;0.70;;
6145;SDS011;3104;50.348;7.620;2022-10-16T13:51:29;0.83;;;0.80;;
6145;SDS011;3104;50.348;7.620;2022-10-16T13:53:56;0.93;;;0.70;;
6145;SDS011;3104;50.348;7.620;2022-10-16T13:56:24;1.03;;;1.03;;
6145;SDS011;3104;50.348;7.620;2022-10-16T13:59:05;0.80;;;0.80;;
6145;SDS011;3104;50.348;7.620;2022-10-16T14:01:52;0.80;;;0.80;;
6145;SDS011;3104;50.348;7.620;2022-10-16T14:04:20;1.60;;;1.00;;
6145;SDS011;3104;50.348;7.620;2022-10-16T14:06:46;0.80;;;0.80;;
6145;SDS011;3104;50.348;7.620;2022-10-16T14:11:49;0.90;;;0.90;;
6145;SDS011;3104;50.348;7.620;2022-10-16T14:14:20;0.90;;;0.90;;
6145;SDS011;3104;50.348;7.620;2022-10-16T14:16:47;1.90;;;0.80;;
6145;SDS011;3104;50.348;7.620;2022-10-16T14:19:15;1.00;;;1.00;;
6145;SDS011;3104;50.348;7.620;2022-10-16T14:21:45;1.10;;;1.10;;
6145;SDS011;3104;50.348;7.620;2022-10-16T14:24:33;1.00;;;1.00;;
6145;SDS011;3104;50.348;7.620;2022-10-16T14:26:58;3.23;;;1.00;;
6145;SDS011;3104;50.348;7.620;2022-10-16T14:29:26;1.10;;;0.90;;
6145;SDS011;3104;50.348;7.620;2022-10-16T14:31:59;1.90;;;1.00;;
6145;SDS011;3104;50.348;7.620;2022-10-16T14:34:28;1.20;;;1.10;;
6145;SDS011;3104;50.348;7.620;2022-10-16T14:37:04;0.90;;;0.90;;
6145;SDS011;3104;50.348;7.620;2022-10-16T14:39:39;1.67;;;1.20;;
6145;SDS011;3104;50.348;7.620;2022-10-16T14:42:11;0.90;;;0.90;;
6145;SDS011;3104;50.348;7.620;2022-10-16T14:44:39;1.63;;;1.20;;
6145;SDS011;3104;50.348;7.620;2022-10-16T14:47:16;3.03;;;1.20;;
6145;SDS011;3104;50.348;7.620;2022-10-16T14:49:47;1.13;;;1.03;;
6145;SDS011;3104;50.348;7.620;2022-10-16T14:52:13;1.03;;;1.03;;
6145;SDS011;3104;50.348;7.620;2022-10-16T14:54:39;1.40;;;1.30;;
6145;SDS011;3104;50.348;7.620;2022-10-16T14:57:05;2.07;;;1.40;;
6145;SDS011;3104;50.348;7.620;2022-10-16T14:59:45;1.43;;;1.27;;
6145;SDS011;3104;50.348;7.620;2022-10-16T15:02:18;1.20;;;1.10;;
6145;SDS011;3104;50.348;7.620;2022-10-16T15:04:45;1.10;;;0.90;;
6145;SDS011;3104;50.348;7.620;2022-10-16T15:07:11;0.93;;;0.93;;
6145;SDS011;3104;50.348;7.620;2022-10-16T15:09:37;2.73;;;1.00;;
6145;SDS011;3104;50.348;7.620;2022-10-16T15:12:02;1.20;;;1.00;;
6145;SDS011;3104;50.348;7.620;2022-10-16T15:14:28;3.67;;;3.47;;
6145;SDS011;3104;50.348;7.620;2022-10-16T15:16:54;9.00;;;8.50;;
6145;SDS011;3104;50.348;7.620;2022-10-16T15:19:19;1.67;;;1.50;;
6145;SDS011;3104;50.348;7.620;2022-10-16T15:21:45;1.90;;;1.63;;
6145;SDS011;3104;50.348;7.620;2022-10-16T15:24:12;3.90;;;3.60;;
6145;SDS011;3104;50.348;7.620;2022-10-16T15:26:38;7.57;;;6.90;;
6145;SDS011;3104;50.348;7.620;2022-10-16T15:29:04;45.43;;;41.00;;
6145;SDS011;3104;50.348;7.620;2022-10-16T15:31:30;22.53;;;21.07;;
6145;SDS011;3104;50.348;7.620;2022-10-16T15:33:56;13.67;;;12.30;;
6145;SDS011;3104;50.348;7.620;2022-10-16T15:36:30;6.07;;;5.57;;
6145;SDS011;3104;50.348;7.620;2022-10-16T15:39:05;12.97;;;12.07;;
6145;SDS011;3104;50.348;7.620;2022-10-16T15:41:39;8.03;;;7.40;;
6145;SDS011;3104;50.348;7.620;2022-10-16T15:44:04;6.47;;;6.07;;
6145;SDS011;3104;50.348;7.620;2022-10-16T15:46:30;8.93;;;8.43;;
6145;SDS011;3104;50.348;7.620;2022-10-16T15:48:57;1.97;;;1.87;;
6145;SDS011;3104;50.348;7.620;2022-10-16T15:51:23;1.73;;;1.30;;
6145;SDS011;3104;50.348;7.620;2022-10-16T15:53:49;4.23;;;1.50;;
6145;SDS011;3104;50.348;7.620;2022-10-16T15:56:16;1.93;;;1.40;;
6145;SDS011;3104;50.348;7.620;2022-10-16T15:58:42;1.70;;;1.60;;
6145;SDS011;3104;50.348;7.620;2022-10-16T16:01:08;1.77;;;1.40;;
6145;SDS011;3104;50.348;7.620;2022-10-16T16:03:35;2.60;;;1.47;;
6145;SDS011;3104;50.348;7.620;2022-10-16T16:06:06;3.97;;;1.40;;
6145;SDS011;3104;50.348;7.620;2022-10-16T16:08:33;1.90;;;1.10;;
6145;SDS011;3104;50.348;7.620;2022-10-16T16:11:04;1.20;;;1.10;;
6145;SDS011;3104;50.348;7.620;2022-10-16T16:13:31;4.03;;;1.60;;
6145;SDS011;3104;50.348;7.620;2022-10-16T16:15:57;4.30;;;1.50;;
6145;SDS011;3104;50.348;7.620;2022-10-16T16:18:23;1.23;;;1.13;;
6145;SDS011;3104;50.348;7.620;2022-10-16T16:20:49;2.10;;;1.20;;
6145;SDS011;3104;50.348;7.620;2022-10-16T16:23:15;1.50;;;1.40;;
6145;SDS011;3104;50.348;7.620;2022-10-16T16:25:41;3.00;;;1.40;;
6145;SDS011;3104;50.348;7.620;2022-10-16T16:28:07;1.80;;;1.40;;
6145;SDS011;3104;50.348;7.620;2022-10-16T16:30:35;1.67;;;1.57;;
6145;SDS011;3104;50.348;7.620;2022-10-16T16:33:01;1.50;;;1.40;;
6145;SDS011;3104;50.348;7.620;2022-10-16T16:35:26;1.90;;;1.70;;
6145;SDS011;3104;50.348;7.620;2022-10-16T16:37:52;2.30;;;1.50;;
6145;SDS011;3104;50.348;7.620;2022-10-16T16:40:17;3.13;;;1.73;;
6145;SDS011;3104;50.348;7.620;2022-10-16T16:42:43;1.83;;;1.73;;
6145;SDS011;3104;50.348;7.620;2022-10-16T16:45:08;3.87;;;2.30;;
6145;SDS011;3104;50.348;7.620;2022-10-16T16:47:34;1.67;;;1.57;;
6145;SDS011;3104;50.348;7.620;2022-10-16T16:49:59;2.53;;;2.43;;
6145;SDS011;3104;50.348;7.620;2022-10-16T16:52:29;2.00;;;1.90;;
6145;SDS011;3104;50.348;7.620;2022-10-16T16:54:55;2.10;;;2.00;;
6145;SDS011;3104;50.348;7.620;2022-10-16T16:57:20;2.47;;;2.20;;